Terminal Aerodrome Forecast
Issued by NWS Sterling, VA

Current Version | Previous Version | Graphics & Text | Print | Product List | Glossary On
Versions: 1 2 3 4 5 6 7 8 9 10 11 12 13 14 15 16 17 18 19 20
000
FTUS41 KLWX 270800 AAA
TAFIAD
TAF AMD
KIAD 270859Z 2709/2812 VRB03KT 5SM BR SKC
     FM271200 30004KT P6SM FEW250
     FM271900 30003KT P6SM SCT050
     FM280400 31005KT P6SM BKN050
     FM280900 34006KT P6SM SCT090=

USA.gov is the U.S. government's official web portal to all federal, state and local government web resources and services.